Hovedside
METAR-TAF:

METAR-TAF

Lufthavner :

Ángel S. Adami internasjonale lufthavn

Montevideo, Uruguay

breddegrad: 34-47S, lengdegrad: 056-15W, høyde over havet: 53 m

Gjeldene værobservasjon

Denne rapporten ble laget for 12 minutter siden, klokken 18:00 UTC
Vind 4 kt fra Øst-sørøst
Temperatur 15°C
Luftfuktighet 51%
Trykk 1032 hPa
Sikt 10 km eller mer
ingen skyer under 1500 m og ingen bygeskyer

METAR: SUAA 151800Z 11004KT CAVOK 15/05 Q1032

Tid: 15:12 (18:12 UTC)

Varsel

Denne rapporten ble laget for 42 minutter siden, klokken 17:30 UTC
Varsel gyldig fra 15. klokken 18 UTC til 16. klokken 18 UTC
Vind 5 kt fra Øst-sørøst
Sikt 10 km eller mer
ingen skyer under 1500 m og ingen bygeskyer
Midlertidig
fra 16. klokken 02 UTC til 16. klokken 11 UTC
Sikt: 2000 m
Brutte skyer i en høyde av 500 ft
dis,

TAF: SUAA 151730Z 1518/1618 11005KT CAVOK TX15/1618Z TN04/1611Z TEMPO 1602/1611 2000 BR BKN005

Værobservasjoner og værvarsel for over 4000 flyplasser (METAR- og TAF-rapporter).

Tilgjengelige stasjoner er representert av de røde og gule prikkene på kartet.

Hold musepekeren over prikken for å se navnet på stasjonen.

Klikk så for å se værobservasjoner og -varsler.

For å forandre kartet kan du klikke på den grønne knappen med svart kryss for å zoome inn, på den grønne knappen med strek for å zoome ut, eller på de grønne pilene for å se tilstøtende kart.


METAR-TAF: